createdAt,value
2018-04-16T00:01:24.182Z,99.90
2018-04-16T00:03:53.745Z,99.90
2018-04-16T00:06:23.865Z,99.90
2018-04-16T00:08:53.322Z,99.90
2018-04-16T00:11:23.053Z,99.90
2018-04-16T00:13:54.125Z,99.90
2018-04-16T00:16:23.632Z,99.90
2018-04-16T00:19:00.879Z,99.90
2018-04-16T00:21:33.959Z,99.90
2018-04-16T00:24:03.433Z,99.90
2018-04-16T00:26:34.329Z,99.90
2018-04-16T00:29:05.814Z,99.90
2018-04-16T00:31:40.547Z,99.90
2018-04-16T00:34:15.436Z,99.90
2018-04-16T00:36:50.509Z,99.90
2018-04-16T00:39:25.055Z,99.90
2018-04-16T00:42:03.571Z,99.90
2018-04-16T00:44:38.194Z,99.90
2018-04-16T00:47:12.811Z,99.90
2018-04-16T00:49:47.660Z,99.90
2018-04-16T00:55:06.018Z,99.90
2018-04-16T00:57:41.128Z,99.90
2018-04-16T01:00:16.799Z,99.90
2018-04-16T01:02:55.380Z,99.90
2018-04-16T01:05:31.099Z,99.90
2018-04-16T01:11:27.122Z,99.90
2018-04-16T01:14:01.859Z,99.90
2018-04-16T01:16:36.652Z,99.90
2018-04-16T01:19:11.334Z,99.90
2018-04-16T01:21:48.848Z,99.90
2018-04-16T01:24:23.814Z,99.90
2018-04-16T01:26:58.622Z,99.90
2018-04-16T01:29:35.047Z,99.90
2018-04-16T01:32:09.904Z,99.90
2018-04-16T01:34:45.729Z,99.90
2018-04-16T01:37:20.426Z,99.90
2018-04-16T01:39:55.268Z,99.90
2018-04-16T01:42:30.040Z,99.90
2018-04-16T01:45:04.781Z,99.90
2018-04-16T01:47:39.455Z,99.90
2018-04-16T01:50:14.164Z,99.90
2018-04-16T01:52:48.827Z,99.90
2018-04-16T01:56:01.262Z,99.90
2018-04-16T01:58:36.219Z,99.90
2018-04-16T02:01:10.991Z,99.90
2018-04-16T02:03:46.171Z,99.90
2018-04-16T02:06:21.955Z,99.90
2018-04-16T02:08:56.791Z,99.90
2018-04-16T02:11:31.959Z,99.90
2018-04-16T02:14:06.980Z,99.90
2018-04-16T02:16:43.024Z,99.90
2018-04-16T02:19:19.589Z,99.90
2018-04-16T02:21:54.430Z,99.90
2018-04-16T02:24:29.595Z,99.90
2018-04-16T02:27:04.450Z,99.90
2018-04-16T02:29:39.812Z,99.90
2018-04-16T02:32:14.511Z,99.90
2018-04-16T02:34:49.314Z,99.90
2018-04-16T02:37:24.086Z,99.90
2018-04-16T02:40:00.489Z,99.90
2018-04-16T02:42:36.533Z,99.90
2018-04-16T02:45:11.505Z,99.90
2018-04-16T02:47:49.951Z,99.90
2018-04-16T02:50:24.653Z,99.90
2018-04-16T02:52:59.734Z,99.90
2018-04-16T02:55:34.618Z,99.90
2018-04-16T03:01:40.183Z,99.90
2018-04-16T03:04:49.788Z,99.90
2018-04-16T03:07:24.629Z,99.90
2018-04-16T03:09:59.620Z,99.90
2018-04-16T03:12:45.725Z,99.90
2018-04-16T03:15:20.454Z,99.90
2018-04-16T03:21:31.156Z,99.90
2018-04-16T03:24:06.870Z,99.90
2018-04-16T03:26:43.239Z,99.90
2018-04-16T03:29:18.573Z,99.90
2018-04-16T03:35:15.181Z,99.90
2018-04-16T03:37:53.432Z,99.90
2018-04-16T03:40:32.693Z,99.90
2018-04-16T03:43:07.613Z,99.90
2018-04-16T03:45:42.666Z,99.90
2018-04-16T03:48:17.676Z,99.90
2018-04-16T03:50:52.842Z,99.90
2018-04-16T03:53:37.128Z,99.90
2018-04-16T03:56:07.115Z,99.90
2018-04-16T03:58:36.806Z,99.90
2018-04-16T04:01:06.534Z,99.90
2018-04-16T04:03:36.285Z,99.90
2018-04-16T04:06:06.743Z,99.90
2018-04-16T04:08:36.492Z,99.90
2018-04-16T04:11:06.252Z,99.90
2018-04-16T04:13:36.175Z,99.90
2018-04-16T04:16:06.410Z,99.90
2018-04-16T04:18:41.353Z,99.90
2018-04-16T04:21:11.964Z,99.90
2018-04-16T04:23:53.186Z,99.90
2018-04-16T04:26:34.025Z,99.90
2018-04-16T04:29:14.799Z,99.90
2018-04-16T04:31:44.473Z,99.90
2018-04-16T04:34:14.175Z,99.90
2018-04-16T04:36:43.895Z,99.90
2018-04-16T04:39:13.636Z,99.90
2018-04-16T04:41:43.441Z,99.90
2018-04-16T04:44:13.124Z,99.90
2018-04-16T04:46:42.774Z,99.90
2018-04-16T04:49:12.595Z,99.90
2018-04-16T04:51:42.304Z,99.90
2018-04-16T04:54:12.135Z,99.90
2018-04-16T04:56:41.888Z,99.90
2018-04-16T04:59:11.620Z,99.90
2018-04-16T05:01:41.535Z,99.90
2018-04-16T05:04:11.281Z,99.90
2018-04-16T05:06:41.092Z,99.90
2018-04-16T05:09:10.756Z,99.90
2018-04-16T05:11:46.336Z,99.90
2018-04-16T05:14:17.641Z,99.90
2018-04-16T05:16:48.194Z,99.90
2018-04-16T05:19:17.910Z,99.90
2018-04-16T05:21:48.637Z,99.90
2018-04-16T05:24:18.389Z,99.90
2018-04-16T05:26:48.043Z,99.90
2018-04-16T05:29:17.755Z,99.90
2018-04-16T05:31:47.481Z,99.90
2018-04-16T05:34:17.190Z,99.90
2018-04-16T05:36:46.976Z,99.90
2018-04-16T05:39:16.626Z,99.90
2018-04-16T05:41:46.286Z,99.90
2018-04-16T05:47:46.445Z,99.90
2018-04-16T05:50:16.001Z,99.90
2018-04-16T05:52:45.480Z,99.90
2018-04-16T05:55:15.069Z,99.90
2018-04-16T05:57:44.547Z,99.90
2018-04-16T06:00:14.071Z,99.90
2018-04-16T06:02:43.668Z,99.90
2018-04-16T06:05:13.203Z,99.90
2018-04-16T06:07:42.834Z,99.90
2018-04-16T06:10:12.333Z,99.90
2018-04-16T06:13:06.056Z,99.90
2018-04-16T06:15:35.643Z,99.90
2018-04-16T06:18:05.271Z,99.90
2018-04-16T06:20:34.936Z,99.90
2018-04-16T06:23:04.526Z,99.90
2018-04-16T06:25:34.529Z,99.90
2018-04-16T06:28:04.402Z,99.90
2018-04-16T06:30:34.423Z,99.90
2018-04-16T06:33:05.057Z,99.90
2018-04-16T06:35:34.993Z,99.90
2018-04-16T06:38:05.328Z,99.90
2018-04-16T06:40:35.701Z,99.90
2018-04-16T06:43:05.262Z,99.90
2018-04-16T06:45:35.089Z,99.90
2018-04-16T06:48:04.606Z,99.90
2018-04-16T06:50:34.258Z,99.90
2018-04-16T06:53:04.879Z,99.90
2018-04-16T06:55:34.531Z,99.90
2018-04-16T06:58:04.310Z,99.90
2018-04-16T07:00:33.898Z,99.90
2018-04-16T07:06:35.515Z,99.90
2018-04-16T07:09:05.108Z,99.90
2018-04-16T07:11:34.557Z,99.90
2018-04-16T07:14:04.689Z,99.90
2018-04-16T07:16:34.178Z,99.90
2018-04-16T07:19:03.677Z,99.90
2018-04-16T07:21:33.161Z,99.90
2018-04-16T07:24:02.420Z,99.90
2018-04-16T07:26:31.680Z,99.90
2018-04-16T07:29:01.001Z,99.90
2018-04-16T07:31:30.348Z,99.90
2018-04-16T07:33:59.669Z,99.90
2018-04-16T07:36:29.013Z,99.90
2018-04-16T07:38:58.395Z,99.90
2018-04-16T07:41:27.648Z,99.90
2018-04-16T07:43:57.025Z,99.90
2018-04-16T07:46:26.464Z,99.90
2018-04-16T07:48:56.050Z,99.90
2018-04-16T07:51:25.400Z,99.90
2018-04-16T07:53:54.796Z,99.90
2018-04-16T07:56:24.248Z,99.90
2018-04-16T07:58:53.621Z,99.90
2018-04-16T08:01:22.969Z,99.90
2018-04-16T08:03:52.324Z,99.90
2018-04-16T08:06:22.395Z,99.90
2018-04-16T08:08:51.760Z,99.90
2018-04-16T08:11:21.253Z,99.90
2018-04-16T08:13:51.483Z,99.90
2018-04-16T08:16:21.632Z,99.90
2018-04-16T08:18:51.000Z,99.90
2018-04-16T08:21:21.042Z,99.90
2018-04-16T08:23:50.407Z,99.90
2018-04-16T08:26:19.803Z,99.90
2018-04-16T08:28:49.094Z,99.90
2018-04-16T08:31:18.505Z,99.90
2018-04-16T08:33:47.858Z,99.90
2018-04-16T08:36:17.339Z,99.90
2018-04-16T08:38:47.561Z,99.90
2018-04-16T08:41:17.669Z,99.90
2018-04-16T08:43:47.001Z,99.90
2018-04-16T08:46:16.306Z,99.90
2018-04-16T08:48:45.634Z,99.90
2018-04-16T08:51:14.965Z,99.90
2018-04-16T08:53:44.352Z,99.90
2018-04-16T08:56:13.673Z,99.90
2018-04-16T08:58:43.008Z,99.90
2018-04-16T09:01:12.300Z,99.90
2018-04-16T09:03:41.655Z,99.90
2018-04-16T09:06:10.948Z,99.90
2018-04-16T09:08:40.201Z,99.90
2018-04-16T09:11:09.525Z,99.90
2018-04-16T09:13:38.976Z,99.90
2018-04-16T09:16:08.276Z,99.90
2018-04-16T09:18:37.649Z,99.90
2018-04-16T09:21:06.966Z,99.90
2018-04-16T09:23:36.218Z,99.90
2018-04-16T09:26:05.608Z,99.90
2018-04-16T09:28:35.710Z,99.90
2018-04-16T09:31:05.817Z,99.90
2018-04-16T09:36:55.842Z,99.90
2018-04-16T09:39:25.301Z,99.90
2018-04-16T09:41:55.379Z,99.90
2018-04-16T09:44:24.822Z,99.90
2018-04-16T09:46:54.255Z,99.90
2018-04-16T09:49:23.582Z,99.90
2018-04-16T09:51:53.046Z,99.90
2018-04-16T09:54:22.390Z,99.90
2018-04-16T09:56:51.804Z,99.90
2018-04-16T09:59:21.229Z,99.90
2018-04-16T10:01:51.635Z,99.90
2018-04-16T10:04:21.017Z,99.90
2018-04-16T10:06:50.441Z,99.90
2018-04-16T10:09:19.763Z,99.90
2018-04-16T10:11:49.204Z,99.90
2018-04-16T10:14:18.629Z,99.90
2018-04-16T10:16:47.954Z,99.90
2018-04-16T10:19:17.521Z,99.90
2018-04-16T10:21:46.886Z,99.90
2018-04-16T10:24:16.476Z,99.90
2018-04-16T10:26:45.882Z,99.90
2018-04-16T10:29:15.368Z,99.90
2018-04-16T10:35:15.878Z,99.90
2018-04-16T10:37:45.243Z,99.90
2018-04-16T10:40:14.688Z,99.90
2018-04-16T10:42:44.080Z,99.90
2018-04-16T10:45:13.500Z,99.90
2018-04-16T10:47:42.883Z,99.90
2018-04-16T10:50:12.522Z,99.70
2018-04-16T10:52:41.978Z,99.50
2018-04-16T10:55:11.451Z,99.40
2018-04-16T10:57:41.829Z,99.20
2018-04-16T11:00:11.252Z,99.00
2018-04-16T11:02:40.569Z,99.10
2018-04-16T11:05:10.201Z,99.10
2018-04-16T11:07:39.546Z,99.00
2018-04-16T11:10:08.919Z,98.60
2018-04-16T11:12:38.385Z,98.60
2018-04-16T11:15:07.873Z,98.70
2018-04-16T11:17:37.302Z,98.80
2018-04-16T11:20:07.782Z,99.00
2018-04-16T11:22:37.129Z,99.00
2018-04-16T11:25:06.543Z,98.80
2018-04-16T11:27:37.096Z,98.70
2018-04-16T11:30:07.821Z,98.90
2018-04-16T11:32:37.226Z,98.80
2018-04-16T11:35:06.682Z,98.80
2018-04-16T11:37:36.220Z,98.90
2018-04-16T11:40:06.664Z,98.90
2018-04-16T11:42:35.996Z,98.90
2018-04-16T11:45:05.414Z,98.40
2018-04-16T11:47:34.873Z,98.50
2018-04-16T11:50:04.226Z,98.20
2018-04-16T11:52:33.870Z,98.20
2018-04-16T11:55:04.157Z,98.10
2018-04-16T11:57:33.579Z,98.30
2018-04-16T12:00:03.067Z,98.20
2018-04-16T12:02:33.108Z,97.90
2018-04-16T12:05:02.756Z,97.70
2018-04-16T12:07:32.080Z,97.20
2018-04-16T12:10:01.564Z,96.90
2018-04-16T12:12:30.902Z,96.80
2018-04-16T12:15:00.438Z,96.70
2018-04-16T12:17:29.812Z,96.50
2018-04-16T12:20:00.397Z,96.10
2018-04-16T12:22:29.781Z,96.00
2018-04-16T12:24:59.969Z,95.90
2018-04-16T12:27:29.295Z,95.90
2018-04-16T12:29:59.515Z,96.10
2018-04-16T12:32:29.800Z,96.10
2018-04-16T12:34:59.178Z,96.00
2018-04-16T12:37:28.614Z,96.30
2018-04-16T12:39:57.944Z,96.10
2018-04-16T12:42:27.441Z,96.10
2018-04-16T12:44:56.761Z,96.00
2018-04-16T12:47:26.196Z,95.90
2018-04-16T12:49:55.576Z,95.40
2018-04-16T12:52:25.048Z,94.10
2018-04-16T12:54:54.707Z,92.70
2018-04-16T12:57:24.226Z,91.80
2018-04-16T12:59:53.566Z,91.40
2018-04-16T13:02:22.993Z,90.20
2018-04-16T13:04:52.624Z,89.70
2018-04-16T13:07:22.284Z,89.30
2018-04-16T13:09:52.297Z,87.60
2018-04-16T13:12:21.796Z,87.50
2018-04-16T13:14:51.118Z,86.50
2018-04-16T13:17:20.533Z,88.00
2018-04-16T13:19:50.676Z,89.30
2018-04-16T13:22:21.621Z,89.30
2018-04-16T13:24:51.987Z,87.70
2018-04-16T13:27:22.105Z,87.70
2018-04-16T13:29:53.165Z,87.90
2018-04-16T13:32:23.380Z,86.70
2018-04-16T13:34:52.879Z,86.70
2018-04-16T13:37:22.960Z,85.90
2018-04-16T13:39:53.666Z,88.50
2018-04-16T13:42:23.064Z,88.60
2018-04-16T13:44:52.534Z,86.90
2018-04-16T13:47:22.010Z,85.00
2018-04-16T13:49:51.483Z,84.50
2018-04-16T13:52:21.647Z,84.10
2018-04-16T13:54:54.058Z,84.00
2018-04-16T13:57:26.207Z,83.60
2018-04-16T13:59:57.311Z,83.20
2018-04-16T14:02:28.649Z,83.10
2018-04-16T14:05:00.508Z,82.20
2018-04-16T14:07:31.761Z,82.00
2018-04-16T14:10:04.317Z,80.70
2018-04-16T14:15:16.957Z,78.20
2018-04-16T14:17:49.773Z,77.80
2018-04-16T14:20:20.036Z,79.50
2018-04-16T14:22:49.439Z,80.70
2018-04-16T14:25:20.105Z,80.90
2018-04-16T14:27:49.832Z,79.70
2018-04-16T14:30:19.961Z,80.10
2018-04-16T14:32:53.169Z,80.00
2018-04-16T14:35:23.612Z,78.20
2018-04-16T14:37:54.941Z,76.40
2018-04-16T14:40:24.440Z,75.60
2018-04-16T14:42:58.333Z,74.70
2018-04-16T14:45:33.539Z,76.40
2018-04-16T14:48:03.640Z,75.50
2018-04-16T14:50:35.749Z,71.70
2018-04-16T14:53:06.884Z,71.80
2018-04-16T14:55:37.332Z,70.60
2018-04-16T14:58:08.379Z,70.60
2018-04-16T15:00:56.668Z,71.00
2018-04-16T15:03:27.291Z,71.10
2018-04-16T15:05:57.912Z,70.50
2018-04-16T15:08:30.669Z,68.00
2018-04-16T15:11:01.072Z,64.60
2018-04-16T15:13:36.961Z,64.60
2018-04-16T15:16:07.153Z,65.20
2018-04-16T15:18:41.013Z,63.70
2018-04-16T15:21:11.079Z,62.60
2018-04-16T15:23:40.516Z,62.40
2018-04-16T15:26:10.788Z,58.60
2018-04-16T15:28:40.697Z,58.50
2018-04-16T15:31:10.296Z,58.90
2018-04-16T15:37:01.582Z,58.10
2018-04-16T15:39:34.952Z,57.80
2018-04-16T15:42:04.664Z,58.40
2018-04-16T15:44:34.064Z,57.80
2018-04-16T15:47:17.734Z,56.40
2018-04-16T15:53:09.777Z,57.20
2018-04-16T15:55:39.191Z,57.40
2018-04-16T15:58:10.306Z,56.80
2018-04-16T16:00:39.689Z,56.80
2018-04-16T16:03:10.563Z,56.80
2018-04-16T16:05:39.986Z,55.50
2018-04-16T16:08:10.410Z,54.20
2018-04-16T16:10:41.950Z,54.90
2018-04-16T16:13:15.151Z,55.80
2018-04-16T16:15:45.576Z,55.80
2018-04-16T16:18:16.154Z,56.60
2018-04-16T16:20:45.671Z,57.70
2018-04-16T16:26:38.065Z,56.40
2018-04-16T16:29:07.819Z,56.50
2018-04-16T16:31:38.289Z,59.40
2018-04-16T16:34:07.801Z,59.40
2018-04-16T16:36:43.831Z,60.50
2018-04-16T16:39:13.380Z,60.70
2018-04-16T16:41:49.628Z,58.50
2018-04-16T16:44:21.902Z,59.80
2018-04-16T16:46:52.840Z,61.00
2018-04-16T16:52:36.757Z,62.20
2018-04-16T16:55:21.673Z,65.50
2018-04-16T16:57:56.566Z,66.20
2018-04-16T17:00:28.888Z,65.50
2018-04-16T17:03:02.158Z,66.30
2018-04-16T17:05:35.866Z,69.50
2018-04-16T17:08:09.219Z,69.50
2018-04-16T17:13:56.568Z,67.00
2018-04-16T17:16:26.372Z,67.40
2018-04-16T17:18:58.127Z,64.90
2018-04-16T17:21:28.503Z,64.80
2018-04-16T17:23:58.773Z,65.30
2018-04-16T17:26:28.338Z,66.20
2018-04-16T17:28:57.883Z,64.80
2018-04-16T17:31:27.560Z,65.00
2018-04-16T17:33:57.107Z,64.10
2018-04-16T17:36:27.037Z,61.30
2018-04-16T17:38:56.620Z,63.00
2018-04-16T17:41:27.647Z,61.80
2018-04-16T17:43:57.175Z,64.50
2018-04-16T17:46:26.717Z,66.90
2018-04-16T17:48:56.841Z,69.50
2018-04-16T17:51:26.281Z,71.40
2018-04-16T17:53:55.928Z,72.00
2018-04-16T17:56:25.402Z,68.20
2018-04-16T17:58:55.337Z,65.00
2018-04-16T18:01:25.833Z,61.90
2018-04-16T18:03:55.304Z,60.10
2018-04-16T18:06:24.850Z,59.30
2018-04-16T18:08:54.536Z,59.60
2018-04-16T18:11:24.040Z,57.90
2018-04-16T18:13:53.585Z,57.60
2018-04-16T18:16:23.245Z,57.20
2018-04-16T18:18:52.701Z,58.40
2018-04-16T18:21:23.350Z,59.30
2018-04-16T18:23:53.769Z,61.50
2018-04-16T18:26:23.226Z,63.20
2018-04-16T18:29:28.648Z,63.50
2018-04-16T18:31:58.226Z,64.40
2018-04-16T18:34:27.822Z,63.90
2018-04-16T18:36:57.186Z,62.70
2018-04-16T18:39:26.866Z,63.30
2018-04-16T18:41:56.461Z,65.30
2018-04-16T18:44:26.701Z,64.70
2018-04-16T18:46:56.258Z,64.60
2018-04-16T18:49:25.708Z,63.40
2018-04-16T18:51:55.489Z,63.50
2018-04-16T18:54:26.862Z,64.10
2018-04-16T18:59:33.274Z,62.90
2018-04-16T19:02:13.595Z,60.70
2018-04-16T19:04:47.118Z,61.40
2018-04-16T19:07:24.728Z,61.20
2018-04-16T19:09:54.275Z,60.60
2018-04-16T19:12:24.532Z,60.70
2018-04-16T19:14:54.766Z,60.60
2018-04-16T19:17:24.991Z,59.70
2018-04-16T19:19:54.404Z,59.70
2018-04-16T19:22:24.817Z,58.10
2018-04-16T19:24:56.029Z,57.50
2018-04-16T19:27:31.963Z,57.50
2018-04-16T19:30:02.106Z,57.90
2018-04-16T19:32:37.013Z,58.70
2018-04-16T19:35:08.578Z,58.50
2018-04-16T19:37:37.947Z,59.90
2018-04-16T19:40:07.347Z,60.10
2018-04-16T19:45:59.373Z,61.50
2018-04-16T19:48:34.887Z,63.20
2018-04-16T19:51:05.937Z,63.20
2018-04-16T19:53:36.132Z,62.60
2018-04-16T19:56:11.059Z,63.20
2018-04-16T19:58:41.017Z,61.30
2018-04-16T20:01:10.833Z,59.30
2018-04-16T20:03:46.668Z,55.90
2018-04-16T20:06:20.452Z,56.40
2018-04-16T20:08:50.644Z,56.40
2018-04-16T20:11:20.329Z,57.80
2018-04-16T20:13:53.404Z,57.70
2018-04-16T20:16:26.775Z,58.00
2018-04-16T20:19:00.625Z,57.10
2018-04-16T20:21:36.208Z,56.00
2018-04-16T20:24:11.508Z,55.00
2018-04-16T20:26:54.137Z,55.20
2018-04-16T20:29:23.960Z,55.60
2018-04-16T20:31:53.590Z,55.10
2018-04-16T20:34:23.144Z,55.70
2018-04-16T20:36:55.113Z,55.50
2018-04-16T20:39:26.972Z,55.40
2018-04-16T20:41:56.741Z,56.70
2018-04-16T20:44:27.386Z,58.50
2018-04-16T20:46:57.284Z,59.00
2018-04-16T20:49:27.484Z,59.10
2018-04-16T20:51:58.061Z,58.80
2018-04-16T20:54:27.669Z,58.70
2018-04-16T20:56:57.849Z,58.30
2018-04-16T20:59:27.564Z,58.50
2018-04-16T21:01:57.297Z,58.40
2018-04-16T21:04:27.817Z,58.00
2018-04-16T21:07:00.459Z,57.50
2018-04-16T21:09:32.878Z,56.60
2018-04-16T21:12:05.225Z,56.60
2018-04-16T21:14:37.509Z,57.50
2018-04-16T21:17:08.925Z,58.40
2018-04-16T21:19:42.029Z,57.80
2018-04-16T21:22:17.308Z,57.50
2018-04-16T21:27:27.981Z,58.60
2018-04-16T21:30:01.920Z,58.60
2018-04-16T21:32:37.853Z,58.40
2018-04-16T21:35:12.885Z,58.60
2018-04-16T21:37:43.832Z,58.50
2018-04-16T21:40:16.957Z,59.20
2018-04-16T21:42:51.918Z,59.30
2018-04-16T21:45:25.307Z,59.50
2018-04-16T21:48:00.716Z,60.60
2018-04-16T21:51:11.450Z,60.50
2018-04-16T21:53:41.901Z,61.50
2018-04-16T21:56:13.797Z,61.30
2018-04-16T21:58:43.433Z,61.70
2018-04-16T22:01:12.941Z,60.70
2018-04-16T22:03:42.533Z,61.50
2018-04-16T22:06:12.001Z,61.00
2018-04-16T22:08:41.949Z,60.80
2018-04-16T22:11:13.324Z,59.50
2018-04-16T22:13:42.933Z,59.90
2018-04-16T22:16:14.261Z,61.10
2018-04-16T22:18:43.847Z,61.00
2018-04-16T22:21:13.386Z,64.90
2018-04-16T22:23:43.046Z,65.90
2018-04-16T22:26:12.925Z,66.20
2018-04-16T22:28:43.454Z,66.40
2018-04-16T22:31:13.866Z,66.30
2018-04-16T22:33:43.677Z,66.20
2018-04-16T22:36:13.359Z,68.40
2018-04-16T22:38:43.407Z,70.30
2018-04-16T22:41:14.460Z,72.60
2018-04-16T22:43:44.069Z,74.10
2018-04-16T22:46:13.643Z,75.70
2018-04-16T22:48:44.196Z,77.00
2018-04-16T22:51:13.912Z,77.90
2018-04-16T22:53:45.326Z,80.70
2018-04-16T22:56:14.865Z,82.20
2018-04-16T22:58:44.363Z,83.20
2018-04-16T23:01:15.331Z,84.80
2018-04-16T23:03:47.273Z,86.30
2018-04-16T23:06:21.504Z,85.30
2018-04-16T23:08:51.654Z,85.20
2018-04-16T23:11:21.177Z,84.90
2018-04-16T23:13:50.718Z,84.30
2018-04-16T23:16:20.206Z,84.70
2018-04-16T23:18:49.982Z,86.20
2018-04-16T23:21:19.560Z,87.80
2018-04-16T23:23:51.784Z,89.00
2018-04-16T23:26:22.128Z,90.10
2018-04-16T23:32:13.413Z,91.00
2018-04-16T23:34:43.396Z,91.10
2018-04-16T23:37:12.693Z,91.20
2018-04-16T23:39:42.024Z,91.70
2018-04-16T23:42:11.277Z,91.80
2018-04-16T23:44:40.624Z,92.00
2018-04-16T23:47:09.881Z,92.40
2018-04-16T23:49:39.321Z,93.20
2018-04-16T23:52:08.822Z,93.80
2018-04-16T23:54:38.834Z,94.30
2018-04-16T23:57:08.096Z,94.80
2018-04-16T23:59:40.670Z,95.20
